createdAt,value
2018-08-11T00:00:25.647Z,3.23
2018-08-11T00:02:54.931Z,2.83
2018-08-11T00:05:24.021Z,2.80
2018-08-11T00:07:52.882Z,2.40
2018-08-11T00:10:21.974Z,2.60
2018-08-11T00:12:50.825Z,2.67
2018-08-11T00:15:20.347Z,3.13
2018-08-11T00:17:49.222Z,2.93
2018-08-11T00:20:21.452Z,2.57
2018-08-11T00:22:50.263Z,2.80
2018-08-11T00:25:28.893Z,2.77
2018-08-11T00:27:57.753Z,2.47
2018-08-11T00:30:26.722Z,2.23
2018-08-11T00:32:55.528Z,2.53
2018-08-11T00:35:24.646Z,2.30
2018-08-11T00:37:53.472Z,2.57
2018-08-11T00:40:22.717Z,2.47
2018-08-11T00:42:51.705Z,2.50
2018-08-11T00:45:20.497Z,2.70
2018-08-11T00:47:49.301Z,2.60
2018-08-11T00:50:23.725Z,2.90
2018-08-11T00:52:52.852Z,2.50
2018-08-11T00:55:21.685Z,2.77
2018-08-11T00:57:50.517Z,2.40
2018-08-11T01:00:20.105Z,2.83
2018-08-11T01:02:48.904Z,2.23
2018-08-11T01:05:19.971Z,2.20
2018-08-11T01:07:49.534Z,2.43
2018-08-11T01:10:18.961Z,2.80
2018-08-11T01:12:48.369Z,2.40
2018-08-11T01:15:19.263Z,2.10
2018-08-11T01:17:48.923Z,2.50
2018-08-11T01:20:17.980Z,2.43
2018-08-11T01:22:47.629Z,2.17
2018-08-11T01:25:16.566Z,2.00
2018-08-11T01:27:45.853Z,2.30
2018-08-11T01:30:16.260Z,2.33
2018-08-11T01:32:45.188Z,2.27
2018-08-11T01:35:14.191Z,1.90
2018-08-11T01:37:43.941Z,2.27
2018-08-11T01:40:13.860Z,2.10
2018-08-11T01:42:44.320Z,2.40
2018-08-11T01:45:14.042Z,2.00
2018-08-11T01:47:43.125Z,3.07
2018-08-11T01:50:13.486Z,2.20
2018-08-11T01:52:43.820Z,2.30
2018-08-11T01:55:14.791Z,2.53
2018-08-11T01:57:43.845Z,2.20
2018-08-11T02:00:14.060Z,2.80
2018-08-11T02:02:43.259Z,2.23
2018-08-11T02:05:12.977Z,2.57
2018-08-11T02:07:42.814Z,2.80
2018-08-11T02:10:13.420Z,2.30
2018-08-11T02:12:42.399Z,2.57
2018-08-11T02:15:12.776Z,2.93
2018-08-11T02:17:41.729Z,2.80
2018-08-11T02:20:13.858Z,2.60
2018-08-11T02:22:44.510Z,2.80
2018-08-11T02:25:13.363Z,3.10
2018-08-11T02:27:42.297Z,2.50
2018-08-11T02:30:14.135Z,2.77
2018-08-11T02:32:42.914Z,3.07
2018-08-11T02:35:12.523Z,2.93
2018-08-11T02:37:41.849Z,2.90
2018-08-11T02:40:13.421Z,2.90
2018-08-11T02:42:42.236Z,3.07
2018-08-11T02:45:12.994Z,2.67
2018-08-11T02:47:41.925Z,2.60
2018-08-11T02:50:11.589Z,3.13
2018-08-11T02:52:41.029Z,3.00
2018-08-11T02:55:10.069Z,2.97
2018-08-11T02:57:38.905Z,2.67
2018-08-11T03:00:09.301Z,2.63
2018-08-11T03:02:38.606Z,2.97
2018-08-11T03:05:07.327Z,3.40
2018-08-11T03:07:36.529Z,2.93
2018-08-11T03:10:06.546Z,2.40
2018-08-11T03:12:35.377Z,2.50
2018-08-11T03:15:05.606Z,2.67
2018-08-11T03:17:34.498Z,2.90
2018-08-11T03:20:03.498Z,2.30
2018-08-11T03:22:32.269Z,2.37
2018-08-11T03:25:01.108Z,2.67
2018-08-11T03:27:30.118Z,2.80
2018-08-11T03:29:58.876Z,2.60
2018-08-11T03:32:27.693Z,3.13
2018-08-11T03:34:56.641Z,2.73
2018-08-11T03:37:25.501Z,2.83
2018-08-11T03:39:54.433Z,2.80
2018-08-11T03:42:23.282Z,3.20
2018-08-11T03:44:52.085Z,3.67
2018-08-11T03:47:21.190Z,4.00
2018-08-11T03:49:50.035Z,3.33
2018-08-11T03:52:19.089Z,3.67
2018-08-11T03:54:48.293Z,3.20
2018-08-11T03:57:17.095Z,3.20
2018-08-11T03:59:45.908Z,3.67
2018-08-11T04:02:15.073Z,3.23
2018-08-11T04:04:43.889Z,3.67
2018-08-11T04:07:12.863Z,3.43
2018-08-11T04:09:42.507Z,3.50
2018-08-11T04:12:11.333Z,3.30
2018-08-11T04:14:40.346Z,3.23
2018-08-11T04:17:09.185Z,3.17
2018-08-11T04:19:37.985Z,3.30
2018-08-11T04:22:06.893Z,2.97
2018-08-11T04:24:35.753Z,2.90
2018-08-11T04:27:04.555Z,3.50
2018-08-11T04:29:33.837Z,2.80
2018-08-11T04:32:02.834Z,2.80
2018-08-11T04:34:31.608Z,2.70
2018-08-11T04:37:00.809Z,2.30
2018-08-11T04:39:29.609Z,2.47
2018-08-11T04:41:58.415Z,2.20
2018-08-11T04:44:29.393Z,2.17
2018-08-11T04:46:58.608Z,1.60
2018-08-11T04:49:27.629Z,2.00
2018-08-11T04:51:56.440Z,1.47
2018-08-11T04:54:25.222Z,2.00
2018-08-11T04:56:54.185Z,2.00
2018-08-11T04:59:23.153Z,1.80
2018-08-11T05:01:51.982Z,1.73
2018-08-11T05:04:20.900Z,2.17
2018-08-11T05:06:50.362Z,2.10
2018-08-11T05:09:19.406Z,1.77
2018-08-11T05:11:48.923Z,1.90
2018-08-11T05:14:17.783Z,1.63
2018-08-11T05:16:46.669Z,1.60
2018-08-11T05:19:15.553Z,1.60
2018-08-11T05:21:44.562Z,1.50
2018-08-11T05:24:13.386Z,1.70
2018-08-11T05:26:42.253Z,1.60
2018-08-11T05:29:11.098Z,1.43
2018-08-11T05:31:39.910Z,1.17
2018-08-11T05:34:08.980Z,1.27
2018-08-11T05:36:37.829Z,1.20
2018-08-11T05:39:10.608Z,1.13
2018-08-11T05:41:39.696Z,1.20
2018-08-11T05:44:09.420Z,1.20
2018-08-11T05:46:38.897Z,1.03
2018-08-11T05:49:08.647Z,1.07
2018-08-11T05:51:37.752Z,1.43
2018-08-11T05:54:06.745Z,1.40
2018-08-11T05:56:35.929Z,1.20
2018-08-11T05:59:05.145Z,1.03
2018-08-11T06:01:33.943Z,1.07
2018-08-11T06:04:02.795Z,1.20
2018-08-11T06:06:31.740Z,1.10
2018-08-11T06:09:00.558Z,1.07
2018-08-11T06:11:29.367Z,1.10
2018-08-11T06:13:58.148Z,0.87
2018-08-11T06:16:26.961Z,1.13
2018-08-11T06:19:02.844Z,0.90
2018-08-11T06:21:31.732Z,1.10
2018-08-11T06:24:00.578Z,1.10
2018-08-11T06:26:29.416Z,1.00
2018-08-11T06:28:58.227Z,1.00
2018-08-11T06:31:27.125Z,1.03
2018-08-11T06:33:55.924Z,1.10
2018-08-11T06:36:24.729Z,1.00
2018-08-11T06:38:53.533Z,1.20
2018-08-11T06:41:22.557Z,1.00
2018-08-11T06:43:51.358Z,1.10
2018-08-11T06:46:20.202Z,1.13
2018-08-11T06:48:48.985Z,1.40
2018-08-11T06:51:17.829Z,1.20
2018-08-11T06:53:46.807Z,1.20
2018-08-11T06:56:15.555Z,1.60
2018-08-11T06:58:44.536Z,1.47
2018-08-11T07:01:15.705Z,1.30
2018-08-11T07:03:45.450Z,1.53
2018-08-11T07:06:14.361Z,1.50
2018-08-11T07:08:43.560Z,1.20
2018-08-11T07:11:13.366Z,1.60
2018-08-11T07:13:42.192Z,1.67
2018-08-11T07:16:11.276Z,1.60
2018-08-11T07:18:40.653Z,1.60
2018-08-11T07:21:09.546Z,2.00
2018-08-11T07:23:38.665Z,1.70
2018-08-11T07:26:07.913Z,1.80
2018-08-11T07:28:37.033Z,2.00
2018-08-11T07:31:06.082Z,1.90
2018-08-11T07:33:34.937Z,1.70
2018-08-11T07:36:03.804Z,2.00
2018-08-11T07:38:33.086Z,1.97
2018-08-11T07:41:01.981Z,1.63
2018-08-11T07:43:31.260Z,2.00
2018-08-11T07:46:00.174Z,2.27
2018-08-11T07:48:29.171Z,1.83
2018-08-11T07:50:57.961Z,1.80
2018-08-11T07:53:26.950Z,2.77
2018-08-11T07:55:55.887Z,2.10
2018-08-11T07:58:24.680Z,2.07
2018-08-11T08:00:53.600Z,1.87
2018-08-11T08:03:22.499Z,1.93
2018-08-11T08:05:51.296Z,2.00
2018-08-11T08:08:20.142Z,1.90
2018-08-11T08:10:48.950Z,1.87
2018-08-11T08:13:17.893Z,2.10
2018-08-11T08:15:46.727Z,1.90
2018-08-11T08:18:15.698Z,2.60
2018-08-11T08:20:44.599Z,2.07
2018-08-11T08:23:13.394Z,1.80
2018-08-11T08:25:42.426Z,1.60
2018-08-11T08:28:11.197Z,2.10
2018-08-11T08:30:40.029Z,1.77
2018-08-11T08:33:08.992Z,1.90
2018-08-11T08:35:37.797Z,2.30
2018-08-11T08:38:06.579Z,2.00
2018-08-11T08:40:35.338Z,2.20
2018-08-11T08:43:04.163Z,1.93
2018-08-11T08:45:33.265Z,2.37
2018-08-11T08:48:02.119Z,2.10
2018-08-11T08:50:31.385Z,2.03
2018-08-11T08:53:00.241Z,1.57
2018-08-11T08:55:29.031Z,2.20
2018-08-11T08:57:58.521Z,1.87
2018-08-11T09:00:28.158Z,1.70
2018-08-11T09:02:57.129Z,2.03
2018-08-11T09:05:26.240Z,1.80
2018-08-11T09:07:55.222Z,1.70
2018-08-11T09:10:24.017Z,1.80
2018-08-11T09:12:52.836Z,1.53
2018-08-11T09:15:22.201Z,1.53
2018-08-11T09:17:51.170Z,1.80
2018-08-11T09:20:20.265Z,1.77
2018-08-11T09:22:49.589Z,1.60
2018-08-11T09:25:18.413Z,1.23
2018-08-11T09:27:47.390Z,1.50
2018-08-11T09:30:16.513Z,1.47
2018-08-11T09:32:45.322Z,1.37
2018-08-11T09:35:14.116Z,1.13
2018-08-11T09:37:42.945Z,1.30
2018-08-11T09:40:11.905Z,2.10
2018-08-11T09:42:40.857Z,2.00
2018-08-11T09:45:10.148Z,1.70
2018-08-11T09:47:38.932Z,1.80
2018-08-11T09:50:07.965Z,2.27
2018-08-11T09:52:36.802Z,2.20
2018-08-11T09:55:05.617Z,2.20
2018-08-11T09:57:34.441Z,1.70
2018-08-11T10:00:03.450Z,1.70
2018-08-11T10:02:32.390Z,1.50
2018-08-11T10:05:01.522Z,1.30
2018-08-11T10:07:30.396Z,1.20
2018-08-11T10:09:59.173Z,1.30
2018-08-11T10:12:28.268Z,1.37
2018-08-11T10:14:57.163Z,1.37
2018-08-11T10:17:26.021Z,1.20
2018-08-11T10:19:55.245Z,1.50
2018-08-11T10:22:24.345Z,1.07
2018-08-11T10:24:53.153Z,1.00
2018-08-11T10:27:21.973Z,1.30
2018-08-11T10:29:51.221Z,1.20
2018-08-11T10:32:19.999Z,1.20
2018-08-11T10:34:48.781Z,1.40
2018-08-11T10:37:17.599Z,1.37
2018-08-11T10:39:46.927Z,1.63
2018-08-11T10:42:15.807Z,1.10
2018-08-11T10:44:44.684Z,1.30
2018-08-11T10:47:13.522Z,1.57
2018-08-11T10:49:42.403Z,1.00
2018-08-11T10:52:11.229Z,1.20
2018-08-11T10:54:40.962Z,1.10
2018-08-11T10:57:09.766Z,1.17
2018-08-11T10:59:39.679Z,1.13
2018-08-11T11:02:08.480Z,1.30
2018-08-11T11:04:37.326Z,1.10
2018-08-11T11:07:06.364Z,1.27
2018-08-11T11:09:35.356Z,1.27
2018-08-11T11:12:04.200Z,1.10
2018-08-11T11:14:33.042Z,1.30
2018-08-11T11:17:02.156Z,1.40
2018-08-11T11:19:31.074Z,1.17
2018-08-11T11:21:59.925Z,1.27
2018-08-11T11:24:28.753Z,1.30
2018-08-11T11:26:58.564Z,1.00
2018-08-11T11:29:27.492Z,1.20
2018-08-11T11:31:56.305Z,1.10
2018-08-11T11:34:25.322Z,1.30
2018-08-11T11:36:54.460Z,1.53
2018-08-11T11:39:23.273Z,1.30
2018-08-11T11:41:52.726Z,1.20
2018-08-11T11:44:21.564Z,1.27
2018-08-11T11:46:50.853Z,1.67
2018-08-11T11:49:22.018Z,1.60
2018-08-11T11:51:50.944Z,1.53
2018-08-11T11:54:20.007Z,1.70
2018-08-11T11:56:48.844Z,1.70
2018-08-11T11:59:17.668Z,1.40
2018-08-11T12:01:46.614Z,1.23
2018-08-11T12:04:15.397Z,1.10
2018-08-11T12:06:44.288Z,1.33
2018-08-11T12:09:13.028Z,1.20
2018-08-11T12:11:41.877Z,1.30
2018-08-11T12:14:10.892Z,0.93
2018-08-11T12:16:39.761Z,1.20
2018-08-11T12:19:09.021Z,1.20
2018-08-11T12:21:39.800Z,0.80
2018-08-11T12:24:09.086Z,0.60
2018-08-11T12:26:38.290Z,0.90
2018-08-11T12:29:07.296Z,0.97
2018-08-11T12:31:36.150Z,1.13
2018-08-11T12:34:05.109Z,1.00
2018-08-11T12:36:33.980Z,1.00
2018-08-11T12:39:03.933Z,0.90
2018-08-11T12:41:32.979Z,0.87
2018-08-11T12:44:01.985Z,1.10
2018-08-11T12:46:30.767Z,1.23
2018-08-11T12:48:59.718Z,1.20
2018-08-11T12:51:28.537Z,1.73
2018-08-11T12:53:57.605Z,1.00
2018-08-11T12:56:26.661Z,0.70
2018-08-11T12:58:55.949Z,0.90
2018-08-11T13:01:24.778Z,0.87
2018-08-11T13:03:53.540Z,0.80
2018-08-11T13:06:22.436Z,0.70
2018-08-11T13:08:51.416Z,0.70
2018-08-11T13:11:20.545Z,0.90
2018-08-11T13:13:49.325Z,0.80
2018-08-11T13:16:18.128Z,0.80
2018-08-11T13:18:47.433Z,0.90
2018-08-11T13:21:16.222Z,0.70
2018-08-11T13:23:45.189Z,1.03
2018-08-11T13:26:13.997Z,1.27
2018-08-11T13:28:42.830Z,1.13
2018-08-11T13:31:11.704Z,0.90
2018-08-11T13:33:40.504Z,0.80
2018-08-11T13:36:09.332Z,1.00
2018-08-11T13:38:38.219Z,1.20
2018-08-11T13:41:07.084Z,0.87
2018-08-11T13:43:36.133Z,1.10
2018-08-11T13:46:04.918Z,0.87
2018-08-11T13:48:33.793Z,1.00
2018-08-11T13:51:02.894Z,0.90
2018-08-11T13:53:31.721Z,0.90
2018-08-11T13:56:00.512Z,1.20
2018-08-11T13:58:29.836Z,1.30
2018-08-11T14:00:58.665Z,0.73
2018-08-11T14:03:27.466Z,1.23
2018-08-11T14:05:56.230Z,1.20
2018-08-11T14:08:25.077Z,1.03
2018-08-11T14:10:54.066Z,1.00
2018-08-11T14:13:22.865Z,1.10
2018-08-11T14:15:51.646Z,0.87
2018-08-11T14:18:20.452Z,1.00
2018-08-11T14:20:49.321Z,1.10
2018-08-11T14:23:18.157Z,0.90
2018-08-11T14:25:47.023Z,0.70
2018-08-11T14:28:16.038Z,0.77
2018-08-11T14:30:44.882Z,1.03
2018-08-11T14:33:13.721Z,1.30
2018-08-11T14:35:42.538Z,0.93
2018-08-11T14:38:11.757Z,0.50
2018-08-11T14:40:40.511Z,0.90
2018-08-11T14:43:09.317Z,1.00
2018-08-11T14:45:38.412Z,0.93
2018-08-11T14:48:07.643Z,0.90
2018-08-11T14:50:36.405Z,0.73
2018-08-11T14:53:05.172Z,0.80
2018-08-11T14:55:34.100Z,0.87
2018-08-11T14:58:03.188Z,0.93
2018-08-11T15:00:32.009Z,1.40
2018-08-11T15:03:00.882Z,1.33
2018-08-11T15:05:29.837Z,1.00
2018-08-11T15:07:58.658Z,0.80
2018-08-11T15:10:27.514Z,1.00
2018-08-11T15:12:56.397Z,1.20
2018-08-11T15:15:25.381Z,0.80
2018-08-11T15:17:54.484Z,1.00
2018-08-11T15:20:23.556Z,1.20
2018-08-11T15:22:52.364Z,1.10
2018-08-11T15:25:21.369Z,1.13
2018-08-11T15:27:50.178Z,1.00
2018-08-11T15:30:19.004Z,1.17
2018-08-11T15:32:47.825Z,1.10
2018-08-11T15:35:16.956Z,1.00
2018-08-11T15:37:45.733Z,1.10
2018-08-11T15:40:14.505Z,1.30
2018-08-11T15:42:43.488Z,1.00
2018-08-11T15:45:12.289Z,1.10
2018-08-11T15:47:41.097Z,1.13
2018-08-11T15:50:09.891Z,1.23
2018-08-11T15:52:38.743Z,1.17
2018-08-11T15:55:07.717Z,1.13
2018-08-11T15:57:36.584Z,0.87
2018-08-11T16:00:06.769Z,1.13
2018-08-11T16:02:35.713Z,0.90
2018-08-11T16:05:04.804Z,0.77
2018-08-11T16:07:33.637Z,1.00
2018-08-11T16:10:02.515Z,0.93
2018-08-11T16:12:31.490Z,1.03
2018-08-11T16:15:00.544Z,0.87
2018-08-11T16:17:29.430Z,0.73
2018-08-11T16:19:58.241Z,0.83
2018-08-11T16:22:27.377Z,0.80
2018-08-11T16:24:56.193Z,1.10
2018-08-11T16:27:25.193Z,1.10
2018-08-11T16:29:54.195Z,0.77
2018-08-11T16:32:22.988Z,1.00
2018-08-11T16:34:51.984Z,1.20
2018-08-11T16:37:20.893Z,1.70
2018-08-11T16:39:49.678Z,1.60
2018-08-11T16:42:18.526Z,1.90
2018-08-11T16:44:47.593Z,1.93
2018-08-11T16:47:16.432Z,1.10
2018-08-11T16:49:45.217Z,1.00
2018-08-11T16:52:14.058Z,0.77
2018-08-11T16:54:42.937Z,1.10
2018-08-11T16:57:11.768Z,0.90
2018-08-11T16:59:40.722Z,0.80
2018-08-11T17:02:09.445Z,0.83
2018-08-11T17:04:38.409Z,0.70
2018-08-11T17:07:07.176Z,0.90
2018-08-11T17:09:36.024Z,0.80
2018-08-11T17:12:04.852Z,0.87
2018-08-11T17:14:33.757Z,0.90
2018-08-11T17:17:02.486Z,1.17
2018-08-11T17:19:31.342Z,0.83
2018-08-11T17:22:00.320Z,1.37
2018-08-11T17:24:29.157Z,1.30
2018-08-11T17:26:58.145Z,0.83
2018-08-11T17:29:26.881Z,0.80
2018-08-11T17:31:55.728Z,0.80
2018-08-11T17:34:24.520Z,1.07
2018-08-11T17:36:53.325Z,1.17
2018-08-11T17:39:22.106Z,0.70
2018-08-11T17:41:50.944Z,1.20
2018-08-11T17:44:19.725Z,1.30
2018-08-11T17:46:48.505Z,1.47
2018-08-11T17:49:17.314Z,1.20
2018-08-11T17:51:46.163Z,0.97
2018-08-11T17:54:14.926Z,1.30
2018-08-11T17:56:43.758Z,0.70
2018-08-11T17:59:12.634Z,1.00
2018-08-11T18:01:41.420Z,1.07
2018-08-11T18:04:10.237Z,1.13
2018-08-11T18:06:39.021Z,0.80
2018-08-11T18:09:13.555Z,1.10
2018-08-11T18:12:19.413Z,1.27
2018-08-11T18:14:49.198Z,0.80
2018-08-11T18:17:21.263Z,1.40
2018-08-11T18:19:51.500Z,0.80
2018-08-11T18:22:20.765Z,0.90
2018-08-11T18:24:50.047Z,0.90
2018-08-11T18:27:19.025Z,1.10
2018-08-11T18:29:48.038Z,1.20
2018-08-11T18:32:17.126Z,1.53
2018-08-11T18:34:50.892Z,1.37
2018-08-11T18:37:22.290Z,0.90
2018-08-11T18:42:50.255Z,0.93
2018-08-11T18:45:20.785Z,1.10
2018-08-11T18:47:49.889Z,1.23
2018-08-11T18:50:26.120Z,0.97
2018-08-11T18:52:55.233Z,0.77
2018-08-11T18:55:26.306Z,0.90
2018-08-11T18:57:55.853Z,0.90
2018-08-11T19:00:24.673Z,1.00
2018-08-11T19:02:53.521Z,1.10
2018-08-11T19:05:42.417Z,1.10
2018-08-11T19:08:11.859Z,1.40
2018-08-11T19:10:43.690Z,0.97
2018-08-11T19:13:17.458Z,1.00
2018-08-11T19:15:53.284Z,0.97
2018-08-11T19:18:28.215Z,0.70
2018-08-11T19:21:01.799Z,1.00
2018-08-11T19:24:02.457Z,1.00
2018-08-11T19:26:38.088Z,1.00
2018-08-11T19:29:20.721Z,1.00
2018-08-11T19:31:53.041Z,1.10
2018-08-11T19:34:22.675Z,1.07
2018-08-11T19:36:51.808Z,1.13
2018-08-11T19:39:20.955Z,1.10
2018-08-11T19:41:50.784Z,0.93
2018-08-11T19:44:20.022Z,1.20
2018-08-11T19:47:08.964Z,1.30
2018-08-11T19:49:40.136Z,0.90
2018-08-11T19:52:09.409Z,1.30
2018-08-11T19:54:50.580Z,1.10
2018-08-11T19:57:46.498Z,1.23
2018-08-11T20:00:39.372Z,1.60
2018-08-11T20:03:11.912Z,1.20
2018-08-11T20:05:48.175Z,1.30
2018-08-11T20:08:20.341Z,1.00
2018-08-11T20:10:49.863Z,1.10
2018-08-11T20:13:18.904Z,1.43
2018-08-11T20:16:08.459Z,1.30
2018-08-11T20:19:02.497Z,1.47
2018-08-11T20:21:40.055Z,1.30
2018-08-11T20:24:14.305Z,0.93
2018-08-11T20:26:48.620Z,1.20
2018-08-11T20:29:28.668Z,1.00
2018-08-11T20:32:02.785Z,1.13
2018-08-11T20:34:44.648Z,1.23
2018-08-11T20:37:30.522Z,1.10
2018-08-11T20:40:30.929Z,0.90
2018-08-11T20:43:07.648Z,1.07
2018-08-11T20:45:52.752Z,1.10
2018-08-11T20:48:34.277Z,1.07
2018-08-11T20:51:45.018Z,0.90
2018-08-11T20:54:35.984Z,1.37
2018-08-11T20:57:20.723Z,0.97
2018-08-11T21:00:26.975Z,0.90
2018-08-11T21:03:13.533Z,1.73
2018-08-11T21:05:55.191Z,1.00
2018-08-11T21:08:34.223Z,0.90
2018-08-11T21:11:12.991Z,1.20
2018-08-11T21:13:54.329Z,0.93
2018-08-11T21:16:26.771Z,1.00
2018-08-11T21:19:07.377Z,0.87
2018-08-11T21:21:40.990Z,1.20
2018-08-11T21:24:12.637Z,1.13
2018-08-11T21:26:43.603Z,1.00
2018-08-11T21:29:20.057Z,0.83
2018-08-11T21:31:53.269Z,0.90
2018-08-11T21:34:30.806Z,0.80
2018-08-11T21:37:01.456Z,1.10
2018-08-11T21:41:10.264Z,1.20
2018-08-11T21:43:44.236Z,1.00
2018-08-11T21:46:23.746Z,1.20
2018-08-11T21:48:55.682Z,1.20
2018-08-11T21:51:45.933Z,0.90
2018-08-11T21:54:18.380Z,1.00
2018-08-11T21:56:59.187Z,1.20
2018-08-11T21:59:32.905Z,1.20
2018-08-11T22:02:01.694Z,1.30
2018-08-11T22:04:32.498Z,1.37
2018-08-11T22:07:02.874Z,1.10
2018-08-11T22:09:32.073Z,1.20
2018-08-11T22:12:01.134Z,1.20
2018-08-11T22:14:30.281Z,1.07
2018-08-11T22:17:00.253Z,1.33
2018-08-11T22:19:29.289Z,1.23
2018-08-11T22:21:59.215Z,1.30
2018-08-11T22:24:42.472Z,1.20
2018-08-11T22:27:24.367Z,1.40
2018-08-11T22:30:11.442Z,1.20
2018-08-11T22:32:52.110Z,1.80
2018-08-11T22:35:30.421Z,1.60
2018-08-11T22:38:22.410Z,1.53
2018-08-11T22:41:21.065Z,1.60
2018-08-11T22:44:05.276Z,1.83
2018-08-11T22:46:34.120Z,1.23
2018-08-11T22:49:03.265Z,1.67
2018-08-11T22:51:32.098Z,1.40
2018-08-11T22:54:00.941Z,1.27
2018-08-11T22:56:29.885Z,1.40
2018-08-11T22:58:58.936Z,1.60
2018-08-11T23:01:27.736Z,1.60
2018-08-11T23:03:56.591Z,1.30
2018-08-11T23:06:25.416Z,1.67
2018-08-11T23:08:54.272Z,1.47
2018-08-11T23:11:23.355Z,1.20
2018-08-11T23:13:52.391Z,1.57
2018-08-11T23:16:21.181Z,1.27
2018-08-11T23:18:50.163Z,1.23
2018-08-11T23:21:18.945Z,1.50
2018-08-11T23:23:47.785Z,1.47
2018-08-11T23:26:16.571Z,1.67
2018-08-11T23:28:45.479Z,1.40
2018-08-11T23:31:14.438Z,1.60
2018-08-11T23:33:43.614Z,2.03
2018-08-11T23:36:12.649Z,1.73
2018-08-11T23:38:41.494Z,1.70
2018-08-11T23:41:11.268Z,1.83
2018-08-11T23:43:40.288Z,1.60
2018-08-11T23:46:09.102Z,1.50
2018-08-11T23:48:37.925Z,1.83
2018-08-11T23:51:06.712Z,1.60
2018-08-11T23:53:35.565Z,1.40
2018-08-11T23:56:04.365Z,1.63
2018-08-11T23:58:33.229Z,1.60
